sensor_id;sensor_type;location;lat;lon;timestamp;temperature;humidity
67196;DHT22;54122;53.538;49.366;2023-02-15T00:01:34;-6.70;80.90
67196;DHT22;54122;53.538;49.366;2023-02-15T00:04:02;-6.80;80.90
67196;DHT22;54122;53.538;49.366;2023-02-15T00:06:28;-6.70;81.10
67196;DHT22;54122;53.538;49.366;2023-02-15T00:08:55;-6.70;81.00
67196;DHT22;54122;53.538;49.366;2023-02-15T00:11:21;-6.70;80.80
67196;DHT22;54122;53.538;49.366;2023-02-15T00:14:10;-6.70;80.80
67196;DHT22;54122;53.538;49.366;2023-02-15T00:16:37;-6.70;80.90
67196;DHT22;54122;53.538;49.366;2023-02-15T00:19:04;-6.70;80.90
67196;DHT22;54122;53.538;49.366;2023-02-15T00:21:32;-6.70;80.80
67196;DHT22;54122;53.538;49.366;2023-02-15T00:24:00;-6.70;80.60
67196;DHT22;54122;53.538;49.366;2023-02-15T00:26:27;-6.80;80.40
67196;DHT22;54122;53.538;49.366;2023-02-15T00:28:55;-6.80;80.30
67196;DHT22;54122;53.538;49.366;2023-02-15T00:31:21;-6.80;80.30
67196;DHT22;54122;53.538;49.366;2023-02-15T00:33:47;-6.80;80.40
67196;DHT22;54122;53.538;49.366;2023-02-15T00:36:14;-6.80;80.40
67196;DHT22;54122;53.538;49.366;2023-02-15T00:38:41;-6.90;80.40
67196;DHT22;54122;53.538;49.366;2023-02-15T00:41:08;-6.90;80.40
67196;DHT22;54122;53.538;49.366;2023-02-15T00:43:35;-6.90;80.50
67196;DHT22;54122;53.538;49.366;2023-02-15T00:46:03;-6.90;80.50
67196;DHT22;54122;53.538;49.366;2023-02-15T00:48:29;-6.90;80.40
67196;DHT22;54122;53.538;49.366;2023-02-15T00:50:58;-6.90;81.50
67196;DHT22;54122;53.538;49.366;2023-02-15T00:53:25;-6.90;80.40
67196;DHT22;54122;53.538;49.366;2023-02-15T00:55:52;-6.90;80.50
67196;DHT22;54122;53.538;49.366;2023-02-15T00:58:18;-6.90;80.60
67196;DHT22;54122;53.538;49.366;2023-02-15T01:00:46;-6.90;80.50
67196;DHT22;54122;53.538;49.366;2023-02-15T01:03:15;-6.90;80.60
67196;DHT22;54122;53.538;49.366;2023-02-15T01:05:41;-6.90;80.50
67196;DHT22;54122;53.538;49.366;2023-02-15T01:08:08;-6.90;80.50
67196;DHT22;54122;53.538;49.366;2023-02-15T01:10:35;-6.90;80.30
67196;DHT22;54122;53.538;49.366;2023-02-15T01:13:02;-6.90;80.20
67196;DHT22;54122;53.538;49.366;2023-02-15T01:15:28;-6.90;80.20
67196;DHT22;54122;53.538;49.366;2023-02-15T01:17:55;-6.90;80.20
67196;DHT22;54122;53.538;49.366;2023-02-15T01:20:24;-6.90;80.10
67196;DHT22;54122;53.538;49.366;2023-02-15T01:22:51;-7.00;80.10
67196;DHT22;54122;53.538;49.366;2023-02-15T01:25:18;-7.00;80.10
67196;DHT22;54122;53.538;49.366;2023-02-15T01:27:45;-7.00;80.10
67196;DHT22;54122;53.538;49.366;2023-02-15T01:30:12;-7.00;80.20
67196;DHT22;54122;53.538;49.366;2023-02-15T01:32:39;-7.00;80.30
67196;DHT22;54122;53.538;49.366;2023-02-15T01:35:06;-7.00;80.40
67196;DHT22;54122;53.538;49.366;2023-02-15T01:37:33;-6.90;80.50
67196;DHT22;54122;53.538;49.366;2023-02-15T01:40:00;-6.90;80.50
67196;DHT22;54122;53.538;49.366;2023-02-15T01:42:28;-6.90;80.50
67196;DHT22;54122;53.538;49.366;2023-02-15T01:45:00;-6.90;80.50
67196;DHT22;54122;53.538;49.366;2023-02-15T01:47:41;-6.90;80.40
67196;DHT22;54122;53.538;49.366;2023-02-15T01:50:22;-6.90;80.50
67196;DHT22;54122;53.538;49.366;2023-02-15T01:52:51;-6.80;80.50
67196;DHT22;54122;53.538;49.366;2023-02-15T01:55:20;-6.90;80.40
67196;DHT22;54122;53.538;49.366;2023-02-15T01:57:47;-6.90;80.30
67196;DHT22;54122;53.538;49.366;2023-02-15T02:00:14;-6.90;80.20
67196;DHT22;54122;53.538;49.366;2023-02-15T02:02:44;-6.90;80.20
67196;DHT22;54122;53.538;49.366;2023-02-15T02:05:11;-6.90;80.20
67196;DHT22;54122;53.538;49.366;2023-02-15T02:07:40;-6.90;80.20
67196;DHT22;54122;53.538;49.366;2023-02-15T02:10:09;-7.00;80.30
67196;DHT22;54122;53.538;49.366;2023-02-15T02:12:37;-6.90;80.60
67196;DHT22;54122;53.538;49.366;2023-02-15T02:15:05;-6.90;80.60
67196;DHT22;54122;53.538;49.366;2023-02-15T02:23:38;-6.90;80.40
67196;DHT22;54122;53.538;49.366;2023-02-15T02:34:31;-7.00;80.70
67196;DHT22;54122;53.538;49.366;2023-02-15T02:37:20;-7.00;80.70
67196;DHT22;54122;53.538;49.366;2023-02-15T02:39:50;-7.00;80.70
67196;DHT22;54122;53.538;49.366;2023-02-15T02:42:48;-7.00;80.70
67196;DHT22;54122;53.538;49.366;2023-02-15T02:45:25;-7.00;80.60
67196;DHT22;54122;53.538;49.366;2023-02-15T02:48:16;-7.00;80.70
67196;DHT22;54122;53.538;49.366;2023-02-15T02:50:45;-7.00;80.60
67196;DHT22;54122;53.538;49.366;2023-02-15T02:53:11;-7.00;80.70
67196;DHT22;54122;53.538;49.366;2023-02-15T02:55:47;-7.00;80.70
67196;DHT22;54122;53.538;49.366;2023-02-15T02:58:39;-7.00;80.60
67196;DHT22;54122;53.538;49.366;2023-02-15T03:01:34;-7.00;80.50
67196;DHT22;54122;53.538;49.366;2023-02-15T03:04:24;-7.00;80.60
67196;DHT22;54122;53.538;49.366;2023-02-15T03:09:33;-7.00;80.60
67196;DHT22;54122;53.538;49.366;2023-02-15T03:14:42;-7.00;80.70
67196;DHT22;54122;53.538;49.366;2023-02-15T03:17:12;-7.00;80.80
67196;DHT22;54122;53.538;49.366;2023-02-15T03:19:40;-6.90;81.00
67196;DHT22;54122;53.538;49.366;2023-02-15T03:25:06;-7.00;80.80
67196;DHT22;54122;53.538;49.366;2023-02-15T03:27:39;-7.00;80.80
67196;DHT22;54122;53.538;49.366;2023-02-15T03:30:07;-7.00;80.70
67196;DHT22;54122;53.538;49.366;2023-02-15T03:32:35;-7.10;80.60
67196;DHT22;54122;53.538;49.366;2023-02-15T03:35:03;-7.00;80.80
67196;DHT22;54122;53.538;49.366;2023-02-15T03:37:44;-7.00;80.90
67196;DHT22;54122;53.538;49.366;2023-02-15T03:43:27;-7.10;80.90
67196;DHT22;54122;53.538;49.366;2023-02-15T03:46:01;-7.10;80.90
67196;DHT22;54122;53.538;49.366;2023-02-15T03:48:39;-7.10;80.80
67196;DHT22;54122;53.538;49.366;2023-02-15T03:51:09;-7.10;80.80
67196;DHT22;54122;53.538;49.366;2023-02-15T03:53:57;-7.10;80.90
67196;DHT22;54122;53.538;49.366;2023-02-15T03:56:25;-7.10;81.00
67196;DHT22;54122;53.538;49.366;2023-02-15T03:58:52;-7.10;82.10
67196;DHT22;54122;53.538;49.366;2023-02-15T04:01:38;-7.10;81.10
67196;DHT22;54122;53.538;49.366;2023-02-15T04:04:36;-7.10;81.20
67196;DHT22;54122;53.538;49.366;2023-02-15T04:07:06;-7.10;81.10
67196;DHT22;54122;53.538;49.366;2023-02-15T04:09:32;-7.10;81.10
67196;DHT22;54122;53.538;49.366;2023-02-15T04:12:17;-7.10;81.20
67196;DHT22;54122;53.538;49.366;2023-02-15T04:14:43;-7.00;81.20
67196;DHT22;54122;53.538;49.366;2023-02-15T04:17:28;-7.00;81.10
67196;DHT22;54122;53.538;49.366;2023-02-15T04:19:55;-7.00;81.10
67196;DHT22;54122;53.538;49.366;2023-02-15T04:22:40;-7.00;81.00
67196;DHT22;54122;53.538;49.366;2023-02-15T04:25:24;-7.00;82.20
67196;DHT22;54122;53.538;49.366;2023-02-15T04:27:52;-7.00;81.10
67196;DHT22;54122;53.538;49.366;2023-02-15T04:30:21;-7.00;81.10
67196;DHT22;54122;53.538;49.366;2023-02-15T04:32:48;-6.90;81.10
67196;DHT22;54122;53.538;49.366;2023-02-15T04:35:15;-6.90;81.10
67196;DHT22;54122;53.538;49.366;2023-02-15T04:37:42;-6.90;81.00
67196;DHT22;54122;53.538;49.366;2023-02-15T04:40:11;-6.90;80.90
67196;DHT22;54122;53.538;49.366;2023-02-15T04:42:37;-6.90;80.90
67196;DHT22;54122;53.538;49.366;2023-02-15T04:45:04;-6.90;80.80
67196;DHT22;54122;53.538;49.366;2023-02-15T04:47:30;-6.90;80.80
67196;DHT22;54122;53.538;49.366;2023-02-15T04:49:56;-6.90;80.70
67196;DHT22;54122;53.538;49.366;2023-02-15T04:52:22;-6.90;80.70
67196;DHT22;54122;53.538;49.366;2023-02-15T04:54:49;-6.90;80.60
67196;DHT22;54122;53.538;49.366;2023-02-15T04:57:15;-6.90;80.60
67196;DHT22;54122;53.538;49.366;2023-02-15T04:59:41;-6.80;80.60
67196;DHT22;54122;53.538;49.366;2023-02-15T05:02:07;-6.80;80.60
67196;DHT22;54122;53.538;49.366;2023-02-15T05:04:34;-6.80;80.60
67196;DHT22;54122;53.538;49.366;2023-02-15T05:07:00;-6.80;80.60
67196;DHT22;54122;53.538;49.366;2023-02-15T05:09:26;-6.80;80.50
67196;DHT22;54122;53.538;49.366;2023-02-15T05:11:53;-6.80;80.60
67196;DHT22;54122;53.538;49.366;2023-02-15T05:14:19;-6.70;80.60
67196;DHT22;54122;53.538;49.366;2023-02-15T05:16:45;-6.70;80.60
67196;DHT22;54122;53.538;49.366;2023-02-15T05:19:12;-6.70;80.40
67196;DHT22;54122;53.538;49.366;2023-02-15T05:21:38;-6.70;80.20
67196;DHT22;54122;53.538;49.366;2023-02-15T05:24:04;-6.60;80.20
67196;DHT22;54122;53.538;49.366;2023-02-15T05:26:50;-6.60;80.20
67196;DHT22;54122;53.538;49.366;2023-02-15T05:29:35;-6.50;80.10
67196;DHT22;54122;53.538;49.366;2023-02-15T05:32:01;-6.50;80.10
67196;DHT22;54122;53.538;49.366;2023-02-15T05:34:28;-6.40;79.90
67196;DHT22;54122;53.538;49.366;2023-02-15T05:36:54;-6.40;79.80
67196;DHT22;54122;53.538;49.366;2023-02-15T05:39:20;-6.40;79.80
67196;DHT22;54122;53.538;49.366;2023-02-15T05:41:46;-6.30;79.80
67196;DHT22;54122;53.538;49.366;2023-02-15T05:44:12;-6.30;79.50
67196;DHT22;54122;53.538;49.366;2023-02-15T05:46:39;-6.30;79.40
67196;DHT22;54122;53.538;49.366;2023-02-15T05:49:05;-6.30;79.50
67196;DHT22;54122;53.538;49.366;2023-02-15T05:51:32;-6.20;79.50
67196;DHT22;54122;53.538;49.366;2023-02-15T05:53:58;-6.10;79.50
67196;DHT22;54122;53.538;49.366;2023-02-15T05:56:24;-6.00;79.50
67196;DHT22;54122;53.538;49.366;2023-02-15T05:58:52;-6.00;79.10
67196;DHT22;54122;53.538;49.366;2023-02-15T06:01:19;-6.00;78.90
67196;DHT22;54122;53.538;49.366;2023-02-15T06:03:48;-5.90;79.00
67196;DHT22;54122;53.538;49.366;2023-02-15T06:06:15;-5.70;79.00
67196;DHT22;54122;53.538;49.366;2023-02-15T06:08:41;-5.60;78.60
67196;DHT22;54122;53.538;49.366;2023-02-15T06:11:08;-5.50;78.60
67196;DHT22;54122;53.538;49.366;2023-02-15T06:13:34;-5.40;78.40
67196;DHT22;54122;53.538;49.366;2023-02-15T06:16:01;-5.20;78.50
67196;DHT22;54122;53.538;49.366;2023-02-15T06:18:27;-5.00;78.40
67196;DHT22;54122;53.538;49.366;2023-02-15T06:20:53;-4.80;77.70
67196;DHT22;54122;53.538;49.366;2023-02-15T06:23:19;-4.60;77.10
67196;DHT22;54122;53.538;49.366;2023-02-15T06:25:46;-4.60;76.10
67196;DHT22;54122;53.538;49.366;2023-02-15T06:28:13;-4.50;76.10
67196;DHT22;54122;53.538;49.366;2023-02-15T06:30:39;-4.40;75.70
67196;DHT22;54122;53.538;49.366;2023-02-15T06:33:05;-4.30;75.60
67196;DHT22;54122;53.538;49.366;2023-02-15T06:35:31;-4.20;75.30
67196;DHT22;54122;53.538;49.366;2023-02-15T06:37:58;-4.10;74.70
67196;DHT22;54122;53.538;49.366;2023-02-15T06:40:24;-4.10;74.20
67196;DHT22;54122;53.538;49.366;2023-02-15T06:42:50;-4.00;73.80
67196;DHT22;54122;53.538;49.366;2023-02-15T06:45:16;-4.00;73.60
67196;DHT22;54122;53.538;49.366;2023-02-15T06:47:42;-3.90;73.50
67196;DHT22;54122;53.538;49.366;2023-02-15T06:50:09;-3.80;73.00
67196;DHT22;54122;53.538;49.366;2023-02-15T06:52:35;-3.70;72.90
67196;DHT22;54122;53.538;49.366;2023-02-15T06:55:02;-3.60;72.20
67196;DHT22;54122;53.538;49.366;2023-02-15T06:57:28;-3.50;71.90
67196;DHT22;54122;53.538;49.366;2023-02-15T06:59:54;-3.30;71.90
67196;DHT22;54122;53.538;49.366;2023-02-15T07:02:20;-3.20;71.30
67196;DHT22;54122;53.538;49.366;2023-02-15T07:04:46;-3.10;71.00
67196;DHT22;54122;53.538;49.366;2023-02-15T07:07:13;-3.00;70.30
67196;DHT22;54122;53.538;49.366;2023-02-15T07:09:39;-3.00;69.60
67196;DHT22;54122;53.538;49.366;2023-02-15T07:12:09;-3.00;69.20
67196;DHT22;54122;53.538;49.366;2023-02-15T07:14:53;-3.00;69.10
67196;DHT22;54122;53.538;49.366;2023-02-15T07:17:19;-3.00;69.10
67196;DHT22;54122;53.538;49.366;2023-02-15T07:19:46;-3.10;69.50
67196;DHT22;54122;53.538;49.366;2023-02-15T07:22:12;-3.20;68.80
67196;DHT22;54122;53.538;49.366;2023-02-15T07:24:38;-3.10;69.00
67196;DHT22;54122;53.538;49.366;2023-02-15T07:27:06;-3.00;69.00
67196;DHT22;54122;53.538;49.366;2023-02-15T07:29:33;-2.90;68.90
67196;DHT22;54122;53.538;49.366;2023-02-15T07:31:59;-2.80;68.80
67196;DHT22;54122;53.538;49.366;2023-02-15T07:34:25;-2.60;68.60
67196;DHT22;54122;53.538;49.366;2023-02-15T07:36:51;-2.60;67.80
67196;DHT22;54122;53.538;49.366;2023-02-15T07:39:19;-2.70;67.70
67196;DHT22;54122;53.538;49.366;2023-02-15T07:41:45;-2.70;67.20
67196;DHT22;54122;53.538;49.366;2023-02-15T07:44:13;-2.70;67.10
67196;DHT22;54122;53.538;49.366;2023-02-15T07:46:42;-2.70;67.20
67196;DHT22;54122;53.538;49.366;2023-02-15T07:49:11;-2.80;66.90
67196;DHT22;54122;53.538;49.366;2023-02-15T07:51:38;-2.90;66.80
67196;DHT22;54122;53.538;49.366;2023-02-15T07:54:04;-2.90;67.20
67196;DHT22;54122;53.538;49.366;2023-02-15T07:56:30;-3.00;67.10
67196;DHT22;54122;53.538;49.366;2023-02-15T07:58:56;-3.00;67.20
67196;DHT22;54122;53.538;49.366;2023-02-15T08:01:35;-2.90;67.20
67196;DHT22;54122;53.538;49.366;2023-02-15T08:04:03;-2.90;67.30
67196;DHT22;54122;53.538;49.366;2023-02-15T08:06:32;-2.80;67.50
67196;DHT22;54122;53.538;49.366;2023-02-15T08:08:59;-2.60;67.00
67196;DHT22;54122;53.538;49.366;2023-02-15T08:11:28;-2.60;66.60
67196;DHT22;54122;53.538;49.366;2023-02-15T08:14:05;-2.50;67.00
67196;DHT22;54122;53.538;49.366;2023-02-15T08:16:39;-2.40;66.60
67196;DHT22;54122;53.538;49.366;2023-02-15T08:19:08;-2.30;66.30
67196;DHT22;54122;53.538;49.366;2023-02-15T08:21:37;-2.30;65.80
67196;DHT22;54122;53.538;49.366;2023-02-15T08:24:05;-2.30;65.50
67196;DHT22;54122;53.538;49.366;2023-02-15T08:26:31;-2.10;66.00
67196;DHT22;54122;53.538;49.366;2023-02-15T08:28:59;-2.10;65.50
67196;DHT22;54122;53.538;49.366;2023-02-15T08:31:27;-2.00;65.20
67196;DHT22;54122;53.538;49.366;2023-02-15T08:33:54;-2.00;64.80
67196;DHT22;54122;53.538;49.366;2023-02-15T08:36:23;-2.00;64.80
67196;DHT22;54122;53.538;49.366;2023-02-15T08:38:49;-1.90;64.80
67196;DHT22;54122;53.538;49.366;2023-02-15T08:41:22;-2.00;64.50
67196;DHT22;54122;53.538;49.366;2023-02-15T08:43:52;-1.90;64.30
67196;DHT22;54122;53.538;49.366;2023-02-15T08:46:24;-1.90;64.50
67196;DHT22;54122;53.538;49.366;2023-02-15T08:48:51;-1.90;64.30
67196;DHT22;54122;53.538;49.366;2023-02-15T08:51:31;-1.80;64.40
67196;DHT22;54122;53.538;49.366;2023-02-15T08:54:13;-1.80;64.60
67196;DHT22;54122;53.538;49.366;2023-02-15T08:56:41;-1.70;64.30
67196;DHT22;54122;53.538;49.366;2023-02-15T08:59:14;-1.60;64.10
67196;DHT22;54122;53.538;49.366;2023-02-15T09:01:41;-1.50;63.60
67196;DHT22;54122;53.538;49.366;2023-02-15T09:04:08;-1.60;63.30
67196;DHT22;54122;53.538;49.366;2023-02-15T09:06:35;-1.50;63.50
67196;DHT22;54122;53.538;49.366;2023-02-15T09:09:03;-1.40;63.10
67196;DHT22;54122;53.538;49.366;2023-02-15T09:11:40;-1.30;63.00
67196;DHT22;54122;53.538;49.366;2023-02-15T09:14:08;-1.30;62.60
67196;DHT22;54122;53.538;49.366;2023-02-15T09:16:37;-1.40;62.30
67196;DHT22;54122;53.538;49.366;2023-02-15T09:19:04;-1.40;62.20
67196;DHT22;54122;53.538;49.366;2023-02-15T09:21:31;-1.60;61.50
67196;DHT22;54122;53.538;49.366;2023-02-15T09:24:00;-1.80;61.60
67196;DHT22;54122;53.538;49.366;2023-02-15T09:26:29;-1.90;62.30
67196;DHT22;54122;53.538;49.366;2023-02-15T09:28:57;-2.00;63.10
67196;DHT22;54122;53.538;49.366;2023-02-15T09:31:33;-1.80;63.90
67196;DHT22;54122;53.538;49.366;2023-02-15T09:34:00;-1.60;63.60
67196;DHT22;54122;53.538;49.366;2023-02-15T09:36:37;-1.40;63.30
67196;DHT22;54122;53.538;49.366;2023-02-15T09:39:13;-1.20;62.70
67196;DHT22;54122;53.538;49.366;2023-02-15T09:49:53;-1.00;59.90
67196;DHT22;54122;53.538;49.366;2023-02-15T09:58:20;-1.40;60.90
67196;DHT22;54122;53.538;49.366;2023-02-15T10:07:15;-1.10;61.10
67196;DHT22;54122;53.538;49.366;2023-02-15T10:13:18;-0.90;60.10
67196;DHT22;54122;53.538;49.366;2023-02-15T10:16:09;-0.80;61.10
67196;DHT22;54122;53.538;49.366;2023-02-15T10:18:42;-0.80;59.80
67196;DHT22;54122;53.538;49.366;2023-02-15T10:26:46;-1.00;59.20
67196;DHT22;54122;53.538;49.366;2023-02-15T10:32:05;-1.30;59.40
67196;DHT22;54122;53.538;49.366;2023-02-15T10:34:39;-1.50;59.60
67196;DHT22;54122;53.538;49.366;2023-02-15T10:37:28;-1.60;60.20
67196;DHT22;54122;53.538;49.366;2023-02-15T10:40:22;-1.60;60.60
67196;DHT22;54122;53.538;49.366;2023-02-15T10:43:21;-1.40;61.30
67196;DHT22;54122;53.538;49.366;2023-02-15T10:46:00;-1.20;60.80
67196;DHT22;54122;53.538;49.366;2023-02-15T10:51:37;-1.10;60.00
67196;DHT22;54122;53.538;49.366;2023-02-15T11:01:58;-1.60;59.80
67196;DHT22;54122;53.538;49.366;2023-02-15T11:07:23;-1.70;60.50
67196;DHT22;54122;53.538;49.366;2023-02-15T11:10:01;-1.70;60.90
67196;DHT22;54122;53.538;49.366;2023-02-15T11:12:29;-1.60;61.20
67196;DHT22;54122;53.538;49.366;2023-02-15T11:15:44;-1.60;61.10
67196;DHT22;54122;53.538;49.366;2023-02-15T11:18:15;-1.70;60.60
67196;DHT22;54122;53.538;49.366;2023-02-15T11:21:09;-1.80;60.60
67196;DHT22;54122;53.538;49.366;2023-02-15T11:23:43;-2.00;60.70
67196;DHT22;54122;53.538;49.366;2023-02-15T11:26:53;-2.10;60.90
67196;DHT22;54122;53.538;49.366;2023-02-15T11:31:44;-2.30;62.00
67196;DHT22;54122;53.538;49.366;2023-02-15T11:34:25;-2.30;62.30
67196;DHT22;54122;53.538;49.366;2023-02-15T11:36:55;-2.30;62.40
67196;DHT22;54122;53.538;49.366;2023-02-15T11:39:26;-2.40;62.50
67196;DHT22;54122;53.538;49.366;2023-02-15T11:42:15;-2.50;62.70
67196;DHT22;54122;53.538;49.366;2023-02-15T11:45:07;-2.70;63.10
67196;DHT22;54122;53.538;49.366;2023-02-15T11:47:41;-2.90;63.50
67196;DHT22;54122;53.538;49.366;2023-02-15T11:50:16;-3.10;64.10
67196;DHT22;54122;53.538;49.366;2023-02-15T11:52:44;-3.20;64.60
67196;DHT22;54122;53.538;49.366;2023-02-15T11:55:19;-3.30;65.00
67196;DHT22;54122;53.538;49.366;2023-02-15T11:57:54;-3.40;65.50
67196;DHT22;54122;53.538;49.366;2023-02-15T12:00:37;-3.40;66.00
67196;DHT22;54122;53.538;49.366;2023-02-15T12:03:11;-3.40;66.20
67196;DHT22;54122;53.538;49.366;2023-02-15T12:05:41;-3.40;66.20
67196;DHT22;54122;53.538;49.366;2023-02-15T12:08:16;-3.50;66.30
67196;DHT22;54122;53.538;49.366;2023-02-15T12:11:06;-3.60;66.20
67196;DHT22;54122;53.538;49.366;2023-02-15T12:13:33;-3.60;66.40
67196;DHT22;54122;53.538;49.366;2023-02-15T12:16:05;-3.70;66.60
67196;DHT22;54122;53.538;49.366;2023-02-15T12:18:40;-3.80;66.90
67196;DHT22;54122;53.538;49.366;2023-02-15T12:21:14;-3.80;66.80
67196;DHT22;54122;53.538;49.366;2023-02-15T12:23:48;-3.90;66.80
67196;DHT22;54122;53.538;49.366;2023-02-15T12:26:22;-3.90;67.10
67196;DHT22;54122;53.538;49.366;2023-02-15T12:28:50;-4.00;67.20
67196;DHT22;54122;53.538;49.366;2023-02-15T12:31:39;-4.20;67.40
67196;DHT22;54122;53.538;49.366;2023-02-15T12:34:19;-4.20;67.70
67196;DHT22;54122;53.538;49.366;2023-02-15T12:36:51;-4.40;67.80
67196;DHT22;54122;53.538;49.366;2023-02-15T12:39:22;-4.40;68.20
67196;DHT22;54122;53.538;49.366;2023-02-15T12:44:33;-4.50;68.60
67196;DHT22;54122;53.538;49.366;2023-02-15T12:47:05;-4.60;68.80
67196;DHT22;54122;53.538;49.366;2023-02-15T12:49:36;-4.70;69.00
67196;DHT22;54122;53.538;49.366;2023-02-15T12:52:24;-4.70;69.20
67196;DHT22;54122;53.538;49.366;2023-02-15T12:54:51;-4.80;69.50
67196;DHT22;54122;53.538;49.366;2023-02-15T12:57:26;-4.90;69.40
67196;DHT22;54122;53.538;49.366;2023-02-15T12:59:54;-5.00;69.80
67196;DHT22;54122;53.538;49.366;2023-02-15T13:02:41;-5.10;70.00
67196;DHT22;54122;53.538;49.366;2023-02-15T13:07:58;-5.20;70.60
67196;DHT22;54122;53.538;49.366;2023-02-15T13:10:31;-5.30;70.80
67196;DHT22;54122;53.538;49.366;2023-02-15T13:12:59;-5.40;71.00
67196;DHT22;54122;53.538;49.366;2023-02-15T13:15:39;-5.40;71.20
67196;DHT22;54122;53.538;49.366;2023-02-15T13:18:15;-5.50;71.40
67196;DHT22;54122;53.538;49.366;2023-02-15T13:20:42;-5.50;71.60
67196;DHT22;54122;53.538;49.366;2023-02-15T13:23:26;-5.50;71.90
67196;DHT22;54122;53.538;49.366;2023-02-15T13:25:56;-5.50;72.10
67196;DHT22;54122;53.538;49.366;2023-02-15T13:28:37;-5.50;72.10
67196;DHT22;54122;53.538;49.366;2023-02-15T13:31:17;-5.50;72.30
67196;DHT22;54122;53.538;49.366;2023-02-15T13:33:53;-5.60;72.60
67196;DHT22;54122;53.538;49.366;2023-02-15T13:36:40;-5.50;72.70
67196;DHT22;54122;53.538;49.366;2023-02-15T13:39:34;-5.60;72.90
67196;DHT22;54122;53.538;49.366;2023-02-15T13:47:59;-5.70;73.50
67196;DHT22;54122;53.538;49.366;2023-02-15T14:01:46;-5.80;74.70
67196;DHT22;54122;53.538;49.366;2023-02-15T14:07:33;-5.90;75.10
67196;DHT22;54122;53.538;49.366;2023-02-15T14:13:01;-5.90;75.70
67196;DHT22;54122;53.538;49.366;2023-02-15T14:15:53;-5.90;75.90
67196;DHT22;54122;53.538;49.366;2023-02-15T14:18:41;-5.90;76.20
67196;DHT22;54122;53.538;49.366;2023-02-15T14:30:12;-6.00;76.90
67196;DHT22;54122;53.538;49.366;2023-02-15T14:32:47;-6.10;77.10
67196;DHT22;54122;53.538;49.366;2023-02-15T14:35:16;-6.10;77.30
67196;DHT22;54122;53.538;49.366;2023-02-15T14:38:15;-6.10;77.60
67196;DHT22;54122;53.538;49.366;2023-02-15T14:41:13;-6.10;77.60
67196;DHT22;54122;53.538;49.366;2023-02-15T14:48:50;-6.20;78.00
67196;DHT22;54122;53.538;49.366;2023-02-15T14:54:09;-6.20;78.40
67196;DHT22;54122;53.538;49.366;2023-02-15T14:56:36;-6.20;78.50
67196;DHT22;54122;53.538;49.366;2023-02-15T14:59:16;-6.20;78.50
67196;DHT22;54122;53.538;49.366;2023-02-15T15:01:55;-6.20;78.60
67196;DHT22;54122;53.538;49.366;2023-02-15T15:07:22;-6.20;78.70
67196;DHT22;54122;53.538;49.366;2023-02-15T15:09:59;-6.30;78.80
67196;DHT22;54122;53.538;49.366;2023-02-15T15:14:53;-6.30;79.00
67196;DHT22;54122;53.538;49.366;2023-02-15T15:23:40;-6.40;79.20
67196;DHT22;54122;53.538;49.366;2023-02-15T15:26:27;-6.50;79.30
67196;DHT22;54122;53.538;49.366;2023-02-15T15:28:55;-6.50;79.70
67196;DHT22;54122;53.538;49.366;2023-02-15T15:37:09;-6.60;79.90
67196;DHT22;54122;53.538;49.366;2023-02-15T15:50:14;-6.50;80.10
67196;DHT22;54122;53.538;49.366;2023-02-15T15:52:48;-6.50;80.00
67196;DHT22;54122;53.538;49.366;2023-02-15T15:55:20;-6.60;80.00
67196;DHT22;54122;53.538;49.366;2023-02-15T15:57:51;-6.60;80.00
67196;DHT22;54122;53.538;49.366;2023-02-15T16:05:43;-6.60;80.20
67196;DHT22;54122;53.538;49.366;2023-02-15T16:08:12;-6.60;80.10
67196;DHT22;54122;53.538;49.366;2023-02-15T16:10:38;-6.70;80.10
67196;DHT22;54122;53.538;49.366;2023-02-15T16:13:07;-6.60;80.10
67196;DHT22;54122;53.538;49.366;2023-02-15T16:18:32;-6.60;80.20
67196;DHT22;54122;53.538;49.366;2023-02-15T16:21:00;-6.60;80.20
67196;DHT22;54122;53.538;49.366;2023-02-15T16:24:00;-6.60;80.30
67196;DHT22;54122;53.538;49.366;2023-02-15T16:27:01;-6.60;80.10
67196;DHT22;54122;53.538;49.366;2023-02-15T16:29:33;-6.60;80.10
67196;DHT22;54122;53.538;49.366;2023-02-15T16:32:05;-6.60;80.20
67196;DHT22;54122;53.538;49.366;2023-02-15T16:34:32;-6.60;80.20
67196;DHT22;54122;53.538;49.366;2023-02-15T16:37:19;-6.70;80.10
67196;DHT22;54122;53.538;49.366;2023-02-15T16:39:47;-6.70;80.00
67196;DHT22;54122;53.538;49.366;2023-02-15T16:42:15;-6.70;80.00
67196;DHT22;54122;53.538;49.366;2023-02-15T16:44:43;-6.70;80.00
67196;DHT22;54122;53.538;49.366;2023-02-15T16:47:24;-6.60;80.20
67196;DHT22;54122;53.538;49.366;2023-02-15T16:49:54;-6.60;80.10
67196;DHT22;54122;53.538;49.366;2023-02-15T16:52:23;-6.60;80.10
67196;DHT22;54122;53.538;49.366;2023-02-15T16:55:02;-6.60;80.10
67196;DHT22;54122;53.538;49.366;2023-02-15T16:57:38;-6.70;80.00
67196;DHT22;54122;53.538;49.366;2023-02-15T17:00:19;-6.60;80.20
67196;DHT22;54122;53.538;49.366;2023-02-15T17:05:21;-6.60;80.40
67196;DHT22;54122;53.538;49.366;2023-02-15T17:10:38;-6.60;80.20
67196;DHT22;54122;53.538;49.366;2023-02-15T17:13:17;-6.50;80.30
67196;DHT22;54122;53.538;49.366;2023-02-15T17:15:44;-6.50;80.20
67196;DHT22;54122;53.538;49.366;2023-02-15T17:18:34;-6.50;80.20
67196;DHT22;54122;53.538;49.366;2023-02-15T17:21:18;-6.50;80.10
67196;DHT22;54122;53.538;49.366;2023-02-15T17:23:48;-6.60;80.10
67196;DHT22;54122;53.538;49.366;2023-02-15T17:26:20;-6.60;80.20
67196;DHT22;54122;53.538;49.366;2023-02-15T17:28:50;-6.60;80.10
67196;DHT22;54122;53.538;49.366;2023-02-15T17:31:18;-6.60;80.20
67196;DHT22;54122;53.538;49.366;2023-02-15T17:33:45;-6.60;80.20
67196;DHT22;54122;53.538;49.366;2023-02-15T17:36:20;-6.60;80.20
67196;DHT22;54122;53.538;49.366;2023-02-15T17:41:24;-6.60;80.30
67196;DHT22;54122;53.538;49.366;2023-02-15T17:43:50;-6.60;80.30
67196;DHT22;54122;53.538;49.366;2023-02-15T17:46:17;-6.60;80.30
67196;DHT22;54122;53.538;49.366;2023-02-15T17:48:46;-6.60;80.20
67196;DHT22;54122;53.538;49.366;2023-02-15T17:51:14;-6.60;80.10
67196;DHT22;54122;53.538;49.366;2023-02-15T17:53:44;-6.70;80.10
67196;DHT22;54122;53.538;49.366;2023-02-15T17:56:31;-6.80;80.10
67196;DHT22;54122;53.538;49.366;2023-02-15T17:58:57;-6.90;80.30
67196;DHT22;54122;53.538;49.366;2023-02-15T18:01:24;-7.00;80.50
67196;DHT22;54122;53.538;49.366;2023-02-15T18:04:13;-7.00;80.80
67196;DHT22;54122;53.538;49.366;2023-02-15T18:06:58;-7.00;81.00
67196;DHT22;54122;53.538;49.366;2023-02-15T18:09:43;-7.00;81.30
67196;DHT22;54122;53.538;49.366;2023-02-15T18:12:33;-6.90;81.30
67196;DHT22;54122;53.538;49.366;2023-02-15T18:15:04;-6.90;81.40
67196;DHT22;54122;53.538;49.366;2023-02-15T18:17:37;-6.90;81.40
67196;DHT22;54122;53.538;49.366;2023-02-15T18:20:09;-6.90;81.40
67196;DHT22;54122;53.538;49.366;2023-02-15T18:22:43;-6.80;81.40
67196;DHT22;54122;53.538;49.366;2023-02-15T18:25:17;-6.80;81.40
67196;DHT22;54122;53.538;49.366;2023-02-15T18:27:44;-6.80;81.40
67196;DHT22;54122;53.538;49.366;2023-02-15T18:30:19;-6.80;81.50